Time;durP1;ratioP1;P1;durP2;ratioP2;P2;SDS_P1;SDS_P2;PMS_P1;PMS_P2;Temp;Humidity;BMP_temperature;BMP_pressure;BME280_temperature;BME280_humidity;BME280_pressure;Samples;Min_cycle;Max_cycle;Signal;HPM_P1;HPM_P2
2021/01/10 03:52:56;;;;;;;10.73;3.67;;;;;;;9.39;76.13;99417.00;5998701;23;20030;-74
2021/01/10 05:41:25;;;;;;;10.93;3.47;;;;;;;9.33;81.83;99524.00;5839402;23;20061;-79
2021/01/10 05:44:00;;;;;;;7.75;2.42;;;;;;;9.62;82.78;99541.13;4962816;29;20038;-79
2021/01/10 05:46:29;;;;;;;6.53;2.72;;;;;;;9.51;82.52;99490.16;4946476;29;20027;-81
2021/01/10 05:48:56;;;;;;;3.45;2.13;;;;;;;9.27;83.01;99502.44;4946422;29;20050;-80
2021/01/10 05:51:26;;;;;;;7.50;3.13;;;;;;;9.12;82.37;99463.38;4946329;29;20020;-80
2021/01/10 05:53:52;;;;;;;7.65;2.03;;;;;;;9.04;82.37;99450.53;4946235;29;20028;-80
2021/01/10 05:58:57;;;;;;;8.48;5.28;;;;;;;8.62;83.50;99439.47;5824371;23;20107;-80
2021/01/10 06:03:58;;;;;;;6.80;2.97;;;;;;;8.36;83.66;99418.81;5471830;23;20081;-83
2021/01/10 06:09:09;;;;;;;9.75;3.30;;;;;;;8.82;83.88;99426.34;4980185;28;20059;-83
2021/01/10 06:11:36;;;;;;;7.65;3.45;;;;;;;8.75;83.98;99412.38;4981259;28;20031;-83
2021/01/10 06:14:04;;;;;;;9.82;2.55;;;;;;;8.79;84.60;99416.00;4981018;28;20035;-81
2021/01/10 06:21:47;;;;;;;4.85;2.40;;;;;;;8.71;85.25;99397.63;6022513;23;20014;-75
2021/01/10 06:24:19;;;;;;;13.35;2.85;;;;;;;8.83;85.05;99414.88;4942408;29;20073;-83
2021/01/10 06:26:53;;;;;;;9.18;2.88;;;;;;;8.98;85.39;99457.56;4926068;29;20031;-78
2021/01/10 06:29:21;;;;;;;8.30;2.45;;;;;;;8.98;85.86;99456.75;4921683;29;20024;-78
2021/01/10 06:31:51;;;;;;;3.03;1.83;;;;;;;9.11;85.45;99478.41;4926189;29;20049;-78
2021/01/10 06:36:53;;;;;;;12.57;3.40;;;;;;;9.39;82.63;99493.94;5167673;23;20074;-80
2021/01/10 06:39:29;;;;;;;4.13;1.80;;;;;;;9.17;82.40;99478.91;5182326;23;20034;-73
2021/01/10 06:41:57;;;;;;;1.70;1.42;;;;;;;9.17;80.49;99473.34;4919184;29;20041;-80
2021/01/10 06:44:23;;;;;;;3.55;2.22;;;;;;;9.19;81.41;99504.31;4902430;29;20019;-80
2021/01/10 06:46:51;;;;;;;3.78;1.60;;;;;;;9.21;82.39;99509.47;4901447;29;20473;-81
2021/01/10 06:49:17;;;;;;;8.52;5.80;;;;;;;9.21;82.59;99532.47;4906188;29;20088;-81
2021/01/10 06:51:45;;;;;;;6.25;2.28;;;;;;;9.02;83.06;99546.41;5009074;23;20069;-76
2021/01/10 06:54:11;;;;;;;6.35;2.55;;;;;;;9.03;82.89;99537.72;5065350;23;20044;-76
2021/01/10 06:56:38;;;;;;;5.28;1.63;;;;;;;9.21;83.13;99549.13;4942018;28;20020;-80
2021/01/10 06:59:28;;;;;;;2.30;1.30;;;;;;;9.13;83.02;99541.88;5117430;23;20056;-81
2021/01/10 07:01:53;;;;;;;7.80;2.00;;;;;;;9.10;83.48;99570.34;4937808;29;20036;-79
2021/01/10 07:04:19;;;;;;;4.00;1.92;;;;;;;9.07;84.21;99512.81;4938666;29;20030;-81
2021/01/10 07:06:47;;;;;;;4.15;2.45;;;;;;;9.17;83.61;99495.56;4929686;29;20008;-78
2021/01/10 07:09:13;;;;;;;4.00;2.10;;;;;;;9.16;84.51;99541.13;4926176;29;20036;-79
2021/01/10 07:11:41;;;;;;;5.30;2.58;;;;;;;9.23;85.20;99566.25;4928100;28;20059;-77
2021/01/10 07:14:06;;;;;;;2.40;1.65;;;;;;;9.26;85.82;99584.13;4923380;29;20028;-78
2021/01/10 07:16:34;;;;;;;5.00;1.85;;;;;;;9.16;85.83;99596.63;4927743;29;20032;-77
2021/01/10 07:19:04;;;;;;;4.38;1.95;;;;;;;9.21;86.17;99578.88;4934032;29;20052;-81
2021/01/10 07:21:34;;;;;;;4.50;2.17;;;;;;;9.19;86.41;99573.69;4934178;29;20020;-81
2021/01/10 07:24:12;;;;;;;5.78;2.63;;;;;;;9.25;86.67;99571.41;4931364;29;20052;-80
2021/01/10 07:26:58;;;;;;;7.07;3.60;;;;;;;9.33;86.47;99576.75;4937366;28;20049;-80
2021/01/10 07:29:35;;;;;;;11.90;6.57;;;;;;;9.31;86.54;99581.84;4931610;28;20031;-78
2021/01/10 07:32:04;;;;;;;8.82;5.55;;;;;;;9.33;86.62;99590.63;4934692;29;20396;-79
2021/01/10 07:34:33;;;;;;;13.98;8.32;;;;;;;9.36;86.73;99589.06;4939636;29;20020;-82
2021/01/10 07:37:03;;;;;;;8.05;6.97;;;;;;;9.37;87.24;99568.47;4938628;29;20040;-79
2021/01/10 07:39:32;;;;;;;10.25;7.95;;;;;;;9.30;86.86;99558.03;5047529;23;20050;-80
2021/01/10 07:42:12;;;;;;;8.93;3.88;;;;;;;9.33;86.84;99560.09;5059174;23;20040;-78
2021/01/10 07:45:02;;;;;;;5.47;3.92;;;;;;;9.27;86.00;99563.50;5013658;23;20063;-79
2021/01/10 07:47:34;;;;;;;4.03;3.13;;;;;;;9.24;86.24;99565.06;5015999;23;20047;-77
2021/01/10 07:50:10;;;;;;;6.80;3.25;;;;;;;9.19;85.78;99559.81;4957100;29;20051;-81
2021/01/10 07:55:19;;;;;;;6.05;2.00;;;;;;;9.17;84.81;99539.97;5202952;23;20059;-79
2021/01/10 07:57:52;;;;;;;2.55;2.30;;;;;;;9.21;84.90;99520.59;4960630;29;20055;-79
2021/01/10 08:00:27;;;;;;;4.88;2.80;;;;;;;9.20;85.69;99475.38;4952403;29;20099;-80
2021/01/10 08:02:54;;;;;;;2.65;2.28;;;;;;;9.22;85.05;99477.81;4948159;29;20055;-78
2021/01/10 08:05:29;;;;;;;12.18;4.38;;;;;;;9.28;85.29;99481.88;4952430;28;20015;-79
2021/01/10 08:08:13;;;;;;;8.23;5.10;;;;;;;9.18;85.18;99458.28;4973940;23;20044;-81
2021/01/10 08:10:42;;;;;;;;;;;;;;;9.39;85.65;99466.19;5275328;23;20056;-81
2021/01/10 08:13:29;;;;;;;7.07;4.20;;;;;;;9.41;85.36;99474.94;5404686;23;20049;-74
2021/01/10 08:15:56;;;;;;;5.30;4.13;;;;;;;9.49;84.63;99506.41;5015452;23;20054;-80
2021/01/10 08:18:23;;;;;;;7.70;4.57;;;;;;;9.51;84.87;99606.78;5030479;23;20482;-79
2021/01/10 08:20:53;;;;;;;8.18;5.75;;;;;;;9.40;84.43;99696.25;5009934;23;20035;-80
2021/01/10 08:23:19;;;;;;;9.02;6.22;;;;;;;9.70;84.58;99740.09;4940106;29;20036;-76
2021/01/10 08:25:46;;;;;;;7.47;5.07;;;;;;;9.79;84.67;99662.03;4956659;28;20055;-78
2021/01/10 08:28:16;;;;;;;9.07;4.78;;;;;;;9.77;85.18;99651.31;4954914;29;20099;-79
2021/01/10 08:30:43;;;;;;;9.30;4.95;;;;;;;9.85;85.98;99664.13;4961806;28;20039;-78
2021/01/10 08:35:44;;;;;;;13.07;8.00;;;;;;;10.21;85.97;99667.50;5888987;23;20060;-76
2021/01/10 09:35:04;;;;;;;11.95;6.50;;;;;;;11.19;81.41;99487.53;5857857;23;20019;-77
2021/01/10 09:37:31;;;;;;;12.32;7.47;;;;;;;11.54;81.16;99501.75;5431125;23;20059;-79
2021/01/10 09:48:26;;;;;;;12.15;5.70;;;;;;;11.33;78.84;99476.50;5590218;23;20039;-74
2021/01/10 09:50:52;;;;;;;7.13;4.60;;;;;;;11.14;78.25;99483.13;5182631;23;20038;-79
2021/01/10 09:53:25;;;;;;;6.70;4.20;;;;;;;11.09;79.24;99494.59;4981640;28;20090;-82
2021/01/10 09:55:51;;;;;;;7.95;4.38;;;;;;;10.94;78.29;99507.56;4982018;28;20030;-81
2021/01/10 09:58:16;;;;;;;11.30;5.78;;;;;;;10.97;79.51;99475.38;4979933;28;20031;-80
2021/01/10 10:00:59;;;;;;;9.82;5.63;;;;;;;10.92;78.85;99471.00;4982521;28;20019;-81
2021/01/10 10:03:27;;;;;;;11.52;6.30;;;;;;;10.83;79.06;99422.38;5191521;23;20056;-81
2021/01/10 10:05:58;;;;;;;9.68;6.28;;;;;;;10.70;78.89;99402.38;4926434;28;20047;-81
2021/01/10 10:08:24;;;;;;;5.70;4.53;;;;;;;11.15;79.06;99467.22;5263092;23;20043;-81
2021/01/10 10:11:04;;;;;;;6.93;5.60;;;;;;;11.60;77.15;99456.81;5421508;23;20033;31
2021/01/10 10:16:19;;;;;;;8.05;3.92;;;;;;;11.44;75.09;99388.25;5082297;23;20103;-78
2021/01/10 10:29:12;;;;;;;8.00;5.07;;;;;;;11.29;76.10;99445.03;6020884;23;20024;-77
2021/01/10 10:34:13;;;;;;;7.03;4.85;;;;;;;11.49;74.84;99390.69;5991018;23;20059;-78
2021/01/10 10:36:39;;;;;;;9.48;4.65;;;;;;;11.84;73.82;99411.63;4941707;29;20168;-80
2021/01/10 10:39:04;;;;;;;6.70;4.03;;;;;;;12.19;71.86;99387.88;5145000;23;20052;-81
2021/01/10 10:41:33;;;;;;;5.53;3.80;;;;;;;12.62;70.44;99413.09;5019500;23;20055;-79
2021/01/10 10:43:59;;;;;;;7.35;4.82;;;;;;;12.90;70.27;99404.81;4960504;28;20051;-80
2021/01/10 10:46:24;;;;;;;6.82;3.75;;;;;;;12.81;69.17;99407.97;4960148;29;20043;-80
2021/01/10 10:48:50;;;;;;;4.30;3.50;;;;;;;12.91;69.04;99388.84;5030903;23;20023;-79
2021/01/10 10:51:16;;;;;;;6.47;4.38;;;;;;;12.87;69.63;99393.63;5102243;23;20040;-79
2021/01/10 10:53:41;;;;;;;17.63;8.05;;;;;;;12.81;70.09;99380.06;4925717;29;20039;-79
2021/01/10 10:56:07;;;;;;;8.95;4.80;;;;;;;12.73;70.00;99369.28;4925264;29;20033;-78
2021/01/10 10:58:33;;;;;;;9.57;5.00;;;;;;;12.85;67.45;99357.72;4924377;29;20088;-79
2021/01/10 11:00:58;;;;;;;7.50;5.03;;;;;;;13.11;68.15;99348.16;4925254;29;20023;-79
2021/01/10 11:03:24;;;;;;;12.82;7.82;;;;;;;13.22;68.75;99348.97;4919534;29;20104;-81
2021/01/10 11:05:49;;;;;;;11.98;6.00;;;;;;;13.38;68.35;99342.16;4938658;29;20064;-81
2021/01/10 11:08:15;;;;;;;209.73;158.55;;;;;;;13.79;65.87;99325.66;4921410;29;20039;-81
2021/01/10 11:10:41;;;;;;;50.05;37.78;;;;;;;14.27;65.16;99330.63;4918068;29;20039;-82
2021/01/10 11:13:06;;;;;;;18.60;13.63;;;;;;;14.70;64.10;99327.56;4903498;29;20464;-84
2021/01/10 11:15:32;;;;;;;15.45;8.85;;;;;;;14.92;63.05;99313.00;4901583;29;20047;-84
2021/01/10 11:17:57;;;;;;;11.15;8.13;;;;;;;15.09;62.86;99299.25;4900688;29;20479;-85
2021/01/10 11:20:23;;;;;;;12.73;9.02;;;;;;;15.23;62.75;99293.50;4916457;29;20136;-86
2021/01/10 11:22:49;;;;;;;19.95;10.32;;;;;;;14.82;62.98;99296.31;4900494;29;20079;-86
2021/01/10 11:25:15;;;;;;;18.30;12.93;;;;;;;14.34;63.40;99292.22;4900470;29;20063;-79
2021/01/10 11:27:40;;;;;;;26.67;17.63;;;;;;;14.03;65.60;99313.59;4900864;29;20028;-79
2021/01/10 11:30:06;;;;;;;21.48;12.48;;;;;;;13.72;67.31;99300.53;4901435;29;20028;-83
2021/01/10 11:32:34;;;;;;;16.58;10.05;;;;;;;13.58;67.29;99293.81;4901452;29;20032;-83
2021/01/10 11:35:00;;;;;;;28.38;15.90;;;;;;;13.55;67.36;99286.22;4901631;29;20039;-80
2021/01/10 11:37:27;;;;;;;15.50;12.02;;;;;;;13.40;68.99;99284.69;4920438;29;20103;-81
2021/01/10 11:39:53;;;;;;;20.38;13.52;;;;;;;13.55;68.77;99289.03;4902471;29;20123;-82
2021/01/10 11:42:18;;;;;;;19.17;11.05;;;;;;;13.66;67.92;99283.41;4902098;29;20028;-84
2021/01/10 11:44:44;;;;;;;17.55;10.65;;;;;;;13.90;67.60;99273.28;4901180;29;20468;-79
2021/01/10 11:47:09;;;;;;;16.85;10.35;;;;;;;13.84;66.85;99267.31;4900714;29;20035;-81
2021/01/10 11:49:35;;;;;;;39.58;25.38;;;;;;;13.93;66.99;99266.88;4900509;29;20444;-80
2021/01/10 11:52:00;;;;;;;30.20;14.60;;;;;;;13.83;68.37;99251.75;4903056;29;20135;-80
2021/01/10 11:54:26;;;;;;;18.70;13.10;;;;;;;14.02;67.55;99270.03;4915224;29;20040;-79
2021/01/10 11:56:52;;;;;;;19.73;12.55;;;;;;;14.34;67.53;99264.25;4903604;29;20025;-79
2021/01/10 11:59:17;;;;;;;23.30;13.55;;;;;;;14.63;66.05;99231.25;4901776;29;20407;-81
2021/01/10 12:01:44;;;;;;;22.75;13.43;;;;;;;14.49;65.96;99208.16;4915475;29;20068;-81
2021/01/10 12:04:10;;;;;;;21.42;13.65;;;;;;;14.35;67.01;99226.66;4923256;29;20024;-79
2021/01/10 12:06:37;;;;;;;29.35;17.75;;;;;;;14.37;67.25;99224.22;4921517;29;20075;-78
2021/01/10 12:09:09;;;;;;;27.23;17.85;;;;;;;14.24;68.43;99194.38;4921954;29;20051;-77
2021/01/10 12:11:36;;;;;;;23.75;15.10;;;;;;;14.10;69.71;99224.03;4912834;29;20036;-77
2021/01/10 12:14:02;;;;;;;20.48;14.93;;;;;;;13.94;70.27;99231.31;4908768;29;20055;-78
2021/01/10 12:16:27;;;;;;;18.48;9.95;;;;;;;13.78;67.87;99246.59;4920169;29;20075;-80
2021/01/10 12:18:53;;;;;;;27.13;12.65;;;;;;;13.78;68.18;99262.56;4926061;29;20029;-79
2021/01/10 12:21:18;;;;;;;14.10;8.77;;;;;;;13.66;68.02;99257.44;4927235;29;20055;-79
2021/01/10 12:23:44;;;;;;;23.23;17.60;;;;;;;13.58;70.54;99204.38;4927645;29;20023;-79
2021/01/10 12:26:15;;;;;;;38.78;26.50;;;;;;;13.38;71.99;99194.09;4927223;29;20095;-80
2021/01/10 12:28:42;;;;;;;31.73;22.25;;;;;;;13.45;72.78;99202.44;4926252;29;20049;-80
2021/01/10 12:31:08;;;;;;;27.73;18.95;;;;;;;13.38;72.26;99200.47;4925344;29;20012;-80
2021/01/10 12:33:34;;;;;;;27.33;18.42;;;;;;;13.50;71.65;99197.22;4925892;29;20104;-80
2021/01/10 12:36:01;;;;;;;19.15;11.23;;;;;;;13.41;69.64;99182.88;4922779;29;20039;-80
2021/01/10 12:38:26;;;;;;;28.77;20.38;;;;;;;13.53;71.00;99192.81;4911525;29;20040;-80
2021/01/10 12:40:52;;;;;;;54.13;32.17;;;;;;;13.67;68.37;99175.97;4908635;29;20028;-77
2021/01/10 12:43:17;;;;;;;12.80;7.30;;;;;;;13.67;65.80;99138.84;4909950;29;20039;-77
2021/01/10 12:45:43;;;;;;;15.50;7.45;;;;;;;13.54;66.10;99107.78;4914531;29;20168;-79
2021/01/10 12:48:10;;;;;;;10.10;6.55;;;;;;;13.59;65.57;99094.19;4930763;29;20028;-79
2021/01/10 12:50:36;;;;;;;9.52;5.75;;;;;;;13.51;65.20;99075.84;4911135;29;20056;-79
2021/01/10 12:53:02;;;;;;;8.48;6.32;;;;;;;13.38;66.15;99143.81;4898372;29;20036;-79
2021/01/10 12:55:28;;;;;;;16.65;12.43;;;;;;;13.43;68.24;99317.41;4899532;29;20043;-79
2021/01/10 12:57:53;;;;;;;22.73;16.15;;;;;;;13.29;70.02;99376.09;4912588;29;20085;-80
2021/01/10 13:00:19;;;;;;;32.25;20.33;;;;;;;13.15;71.85;99337.75;4913137;29;20039;-79
2021/01/10 13:02:45;;;;;;;25.73;17.60;;;;;;;13.09;72.88;99231.25;4894222;29;20127;-79
2021/01/10 13:05:11;;;;;;;24.58;14.40;;;;;;;13.18;72.66;99213.28;4893956;29;20044;-79
2021/01/10 13:07:39;;;;;;;24.55;15.00;;;;;;;13.32;75.06;99204.91;4888335;29;20029;-79
2021/01/10 13:10:05;;;;;;;26.58;17.13;;;;;;;13.19;75.73;99154.22;4889383;29;20033;-79
2021/01/10 13:12:33;;;;;;;25.55;15.75;;;;;;;13.08;77.40;99148.66;4888353;29;20044;-79
2021/01/10 13:14:59;;;;;;;29.00;19.88;;;;;;;13.31;77.30;99164.16;4893016;29;20029;-81
2021/01/10 13:17:26;;;;;;;19.00;11.85;;;;;;;13.55;75.59;99166.06;4897109;29;20032;-79
2021/01/10 13:19:56;;;;;;;23.55;14.30;;;;;;;13.76;74.43;99183.91;4898715;29;20029;-79
2021/01/10 13:22:23;;;;;;;17.08;12.50;;;;;;;13.80;73.96;99187.50;4897111;29;20040;-79
2021/01/10 13:24:49;;;;;;;21.52;11.27;;;;;;;13.56;74.79;99173.22;4895581;29;20504;-79
2021/01/10 13:27:14;;;;;;;17.98;12.73;;;;;;;13.32;74.90;99225.25;4894522;29;20071;-79
2021/01/10 13:29:40;;;;;;;18.02;12.45;;;;;;;13.31;75.86;99206.06;4911924;29;20036;-79
2021/01/10 13:32:06;;;;;;;20.65;12.25;;;;;;;13.17;76.46;99190.16;4897625;29;20032;-79
2021/01/10 13:34:31;;;;;;;24.55;15.40;;;;;;;13.13;76.85;99222.06;4901445;29;20033;-79
2021/01/10 13:36:58;;;;;;;26.40;14.75;;;;;;;13.00;77.40;99225.31;4909911;29;20445;-79
2021/01/10 13:39:24;;;;;;;18.75;13.05;;;;;;;13.09;77.34;99211.69;4892639;29;20036;-79
2021/01/10 13:41:50;;;;;;;22.92;10.85;;;;;;;13.07;77.79;99202.94;4892951;29;20044;-80
2021/01/10 13:44:16;;;;;;;27.80;13.27;;;;;;;13.09;78.27;99250.00;4894331;29;20033;-79
2021/01/10 13:46:41;;;;;;;24.55;14.38;;;;;;;13.20;77.57;99222.84;4912040;29;20055;-78
2021/01/10 13:49:07;;;;;;;21.13;11.85;;;;;;;13.26;77.21;99231.63;4916948;29;20016;-78
2021/01/10 13:51:32;;;;;;;31.05;17.90;;;;;;;13.33;75.91;99212.06;4909882;29;20044;-79
2021/01/10 13:53:59;;;;;;;30.92;18.35;;;;;;;13.31;75.66;99203.28;4914121;29;20047;-78
2021/01/10 13:56:29;;;;;;;21.23;15.38;;;;;;;13.29;74.64;99166.59;4909723;29;20495;-77
2021/01/10 13:58:55;;;;;;;20.92;12.15;;;;;;;13.45;74.49;99143.75;4909918;29;20051;-78
2021/01/10 14:01:37;;;;;;;21.80;13.93;;;;;;;13.46;74.89;99179.66;4910153;29;20539;-78
2021/01/10 14:04:04;;;;;;;26.15;15.55;;;;;;;13.55;73.73;99188.41;4909021;29;20032;-78
2021/01/10 14:06:30;;;;;;;19.58;13.07;;;;;;;13.56;73.16;99194.78;4913911;29;20028;-79
2021/01/10 14:09:00;;;;;;;16.75;11.73;;;;;;;13.43;73.72;99214.03;4917775;29;20100;-79
2021/01/10 14:11:31;;;;;;;29.42;18.10;;;;;;;13.11;75.14;99186.97;4900330;29;20095;-80
2021/01/10 14:14:01;;;;;;;24.00;16.23;;;;;;;13.14;74.82;99174.19;4931621;29;20054;-79
2021/01/10 14:16:30;;;;;;;22.23;15.07;;;;;;;12.98;73.82;99216.50;4916798;29;20035;-79
2021/01/10 14:18:57;;;;;;;17.45;13.60;;;;;;;13.17;73.77;99212.50;4915191;29;20479;-79
2021/01/10 14:21:28;;;;;;;17.38;11.25;;;;;;;12.99;70.91;99167.06;4909331;29;20044;-79
2021/01/10 14:23:55;;;;;;;19.65;14.30;;;;;;;12.84;69.89;99171.91;4910793;29;20452;-79
2021/01/10 14:26:36;;;;;;;23.73;15.95;;;;;;;12.73;68.93;99165.53;4910917;29;20035;-79
2021/01/10 14:29:15;;;;;;;19.08;13.48;;;;;;;12.56;69.10;99162.38;4909751;29;20032;-79
2021/01/10 14:31:42;;;;;;;23.17;13.57;;;;;;;12.49;67.56;99159.59;4909461;29;20032;-79
2021/01/10 14:34:08;;;;;;;21.10;13.35;;;;;;;12.39;68.69;99157.59;4926812;29;20055;-80
2021/01/10 14:36:33;;;;;;;12.05;9.02;;;;;;;12.38;68.59;99136.50;4910669;29;20032;-79
2021/01/10 14:39:00;;;;;;;15.13;11.18;;;;;;;12.42;69.09;99142.88;4927308;29;20043;-80
2021/01/10 14:41:27;;;;;;;12.15;10.25;;;;;;;12.57;69.48;99172.34;4912641;29;20056;-79
2021/01/10 14:43:53;;;;;;;13.70;9.02;;;;;;;12.58;68.79;99148.03;4913524;29;20042;-80
2021/01/10 14:46:24;;;;;;;11.73;8.63;;;;;;;12.59;68.29;99144.84;4909436;29;20032;-79
2021/01/10 14:48:51;;;;;;;13.38;9.27;;;;;;;12.61;68.96;99169.53;4908943;29;20506;-79
2021/01/10 14:51:21;;;;;;;12.63;10.10;;;;;;;12.63;69.80;99160.78;4907527;29;20119;-80
2021/01/10 14:53:49;;;;;;;25.08;17.48;;;;;;;12.58;69.84;99160.00;4906796;29;20044;-79
2021/01/10 14:56:15;;;;;;;15.73;11.90;;;;;;;12.49;69.75;99167.97;4904570;29;20059;-80
2021/01/10 14:58:42;;;;;;;22.90;13.63;;;;;;;12.27;69.46;99138.50;4922542;29;20108;-80
2021/01/10 15:01:08;;;;;;;12.70;8.20;;;;;;;12.34;69.28;99155.22;4908331;29;20032;-80
2021/01/10 15:03:35;;;;;;;39.47;27.55;;;;;;;12.22;69.54;99141.69;4910503;29;20032;-78
2021/01/10 15:06:05;;;;;;;25.83;17.88;;;;;;;12.28;69.51;99140.09;4912819;29;20044;-80
2021/01/10 15:08:31;;;;;;;15.10;8.43;;;;;;;12.27;69.92;99138.50;4910558;29;20127;-81
2021/01/10 15:10:56;;;;;;;24.02;14.40;;;;;;;12.25;70.59;99118.56;4912621;29;20057;-80
2021/01/10 15:13:22;;;;;;;16.35;12.82;;;;;;;12.16;71.68;99102.25;4910569;29;20032;-80
2021/01/10 15:15:47;;;;;;;13.02;10.60;;;;;;;12.12;71.96;99078.34;4912066;29;20031;-79
2021/01/10 15:18:13;;;;;;;13.00;9.88;;;;;;;12.07;72.09;99080.34;4908752;29;20031;-79
2021/01/10 15:20:39;;;;;;;18.17;12.93;;;;;;;12.02;72.31;99089.09;4912093;29;20035;-79
2021/01/10 15:23:05;;;;;;;17.70;13.25;;;;;;;11.90;72.58;99086.72;4914913;29;20123;-79
2021/01/10 15:25:31;;;;;;;19.65;13.93;;;;;;;11.78;72.68;99078.75;4915013;29;20399;-79
2021/01/10 15:28:00;;;;;;;28.52;19.85;;;;;;;11.60;72.08;99066.78;4915423;29;20028;-79
2021/01/10 15:30:26;;;;;;;27.20;18.17;;;;;;;11.65;73.01;99035.75;4914875;29;20012;-79
2021/01/10 15:32:52;;;;;;;24.65;18.08;;;;;;;11.55;73.91;99052.03;4914489;29;20088;-79
2021/01/10 15:35:19;;;;;;;28.77;18.08;;;;;;;11.43;73.46;99063.56;4913941;29;20039;-79
2021/01/10 15:37:45;;;;;;;20.40;15.98;;;;;;;11.37;73.52;99070.72;4912751;29;20028;-79
2021/01/10 15:40:12;;;;;;;17.77;12.05;;;;;;;11.31;74.00;99065.94;4913474;29;20059;-79
2021/01/10 15:42:40;;;;;;;16.38;13.38;;;;;;;11.26;74.61;99090.19;4913466;29;20041;-79
2021/01/10 15:45:06;;;;;;;18.13;13.45;;;;;;;11.12;73.93;99069.88;4913261;29;20066;-78
2021/01/10 15:47:32;;;;;;;24.95;16.75;;;;;;;11.17;74.26;99125.16;4913485;29;20032;-79
2021/01/10 15:49:58;;;;;;;30.45;20.55;;;;;;;11.14;75.33;99139.88;4912214;29;20036;-79
2021/01/10 15:52:23;;;;;;;29.75;19.02;;;;;;;11.02;75.73;99152.16;4916136;29;20092;-79
2021/01/10 15:54:49;;;;;;;20.35;15.50;;;;;;;10.88;75.01;99133.41;4923452;29;20065;-79
2021/01/10 15:57:15;;;;;;;18.15;13.70;;;;;;;10.82;75.47;99132.19;4917452;29;20040;-78
2021/01/10 15:59:40;;;;;;;21.20;15.60;;;;;;;10.75;75.91;99140.47;4918088;29;20064;-79
2021/01/10 16:02:07;;;;;;;28.35;20.42;;;;;;;10.72;76.11;99141.28;4918152;29;20104;-79
2021/01/10 16:04:32;;;;;;;32.25;21.00;;;;;;;10.71;76.38;99161.94;4933149;29;20039;-79
2021/01/10 16:06:58;;;;;;;24.02;15.93;;;;;;;10.74;76.00;99184.19;4916662;29;20032;-79
2021/01/10 16:09:23;;;;;;;25.17;17.33;;;;;;;10.74;75.75;99200.09;4934295;29;20040;-79
2021/01/10 16:11:49;;;;;;;32.63;21.60;;;;;;;10.74;76.29;99223.16;4918762;29;20039;-79
2021/01/10 16:14:15;;;;;;;25.05;18.40;;;;;;;10.68;76.49;99240.59;4932327;29;20032;-79
2021/01/10 16:16:40;;;;;;;26.73;20.27;;;;;;;10.65;76.33;99230.25;4914080;29;20096;-79
2021/01/10 16:19:06;;;;;;;21.70;18.20;;;;;;;10.63;76.54;99238.97;4913486;29;20111;-79
2021/01/10 16:21:32;;;;;;;16.02;12.45;;;;;;;10.59;75.96;99243.72;4912296;29;20487;-78
2021/01/10 16:23:59;;;;;;;14.82;11.52;;;;;;;10.57;76.01;99250.84;4924902;29;20126;-78
2021/01/10 16:26:26;;;;;;;19.30;14.98;;;;;;;10.57;75.97;99239.72;4911212;29;20119;-78
2021/01/10 16:28:55;;;;;;;60.28;41.20;;;;;;;10.57;75.71;99245.28;4908509;29;20036;-78
2021/01/10 16:31:40;;;;;;;54.05;38.88;;;;;;;10.61;76.72;99229.44;4908647;29;20032;-78
2021/01/10 16:34:06;;;;;;;44.58;29.05;;;;;;;10.53;76.69;99241.69;4910470;29;20035;-80
2021/01/10 16:36:43;;;;;;;45.65;30.48;;;;;;;10.49;76.04;99250.81;4928259;29;20428;-79
2021/01/10 16:39:10;;;;;;;35.65;26.75;;;;;;;10.80;75.63;99243.06;4914367;29;20129;-78
2021/01/10 16:41:41;;;;;;;39.25;30.02;;;;;;;10.63;75.61;99257.66;4917004;29;20032;-79
2021/01/10 16:44:09;;;;;;;37.38;27.10;;;;;;;10.55;77.10;99283.81;4914326;29;20118;-78
2021/01/10 16:46:35;;;;;;;37.50;30.25;;;;;;;10.55;77.83;99286.59;4914608;29;20025;-79
2021/01/10 16:49:02;;;;;;;41.22;29.02;;;;;;;10.47;78.63;99283.75;4913553;29;20100;-78
2021/01/10 16:51:28;;;;;;;50.72;35.33;;;;;;;10.42;78.18;99284.09;4904348;29;20488;-79
2021/01/10 16:53:54;;;;;;;65.85;45.25;;;;;;;10.41;78.79;99292.84;4910831;29;20067;-78
2021/01/10 16:56:19;;;;;;;46.55;36.92;;;;;;;10.37;77.01;99303.13;4893838;29;20112;-79
2021/01/10 16:58:46;;;;;;;37.40;30.42;;;;;;;10.35;78.01;99297.16;4909257;29;20025;-79
2021/01/10 17:01:12;;;;;;;31.98;25.55;;;;;;;10.37;77.63;99280.88;4893823;29;20032;-79
2021/01/10 17:03:38;;;;;;;27.13;20.75;;;;;;;10.30;76.76;99281.59;4910203;29;20040;-78
2021/01/10 17:06:05;;;;;;;21.73;17.35;;;;;;;10.25;76.87;99273.63;4909389;29;20048;-78
2021/01/10 17:08:31;;;;;;;30.35;22.95;;;;;;;10.25;76.41;99279.19;4892818;29;20066;-78
2021/01/10 17:10:57;;;;;;;50.15;41.05;;;;;;;10.26;76.70;99291.09;4907601;29;20036;-79
2021/01/10 17:13:22;;;;;;;43.60;32.25;;;;;;;10.34;77.31;99321.38;4890750;29;20021;-79
2021/01/10 17:15:48;;;;;;;38.80;31.80;;;;;;;10.35;77.87;99289.59;4907807;29;20188;-78
2021/01/10 17:18:14;;;;;;;42.47;31.90;;;;;;;10.31;77.52;99316.56;4893509;29;20040;-78
2021/01/10 17:20:40;;;;;;;41.00;31.35;;;;;;;10.32;77.96;99343.19;4907338;29;20108;-79
2021/01/10 17:23:06;;;;;;;33.67;26.10;;;;;;;10.34;77.97;99304.69;4892378;29;20028;-78
2021/01/10 17:25:33;;;;;;;34.63;23.00;;;;;;;10.34;78.07;99328.94;4885533;29;20105;-79
2021/01/10 17:28:00;;;;;;;30.58;25.35;;;;;;;10.35;78.48;99322.19;4893882;29;20037;-78
2021/01/10 17:30:25;;;;;;;31.60;24.85;;;;;;;10.27;78.48;99312.94;4912173;29;20025;-78
2021/01/10 17:32:51;;;;;;;38.67;27.80;;;;;;;10.29;78.35;99338.41;4907761;29;20124;-79
2021/01/10 17:35:17;;;;;;;42.63;34.30;;;;;;;10.44;78.12;99337.38;4892602;29;20120;-79
2021/01/10 17:37:43;;;;;;;43.58;32.60;;;;;;;10.38;78.66;99338.88;4893789;29;20055;-79
2021/01/10 17:40:14;;;;;;;58.13;44.85;;;;;;;10.21;79.12;99336.69;4907998;29;20035;-77
2021/01/10 17:42:41;;;;;;;47.00;34.35;;;;;;;10.19;79.08;99341.84;4889562;29;20040;-78
2021/01/10 17:45:07;;;;;;;47.85;34.03;;;;;;;10.19;79.30;99345.41;4903739;29;20092;-76
2021/01/10 17:47:34;;;;;;;59.85;45.67;;;;;;;10.33;80.17;99343.97;4890717;29;20037;-78
2021/01/10 17:50:00;;;;;;;56.53;39.80;;;;;;;10.26;80.87;99349.47;4890291;29;20033;-78
2021/01/10 17:52:26;;;;;;;61.60;43.38;;;;;;;10.27;80.96;99348.28;4888903;29;20053;-78
2021/01/10 17:54:51;;;;;;;70.60;49.65;;;;;;;10.29;81.36;99368.19;4905666;29;20032;-78
2021/01/10 17:57:17;;;;;;;65.60;42.25;;;;;;;10.23;81.72;99381.59;4906282;29;20490;-78
2021/01/10 17:59:42;;;;;;;52.35;37.15;;;;;;;10.19;81.72;99383.53;4889272;29;20029;-77
2021/01/10 18:02:08;;;;;;;45.15;35.50;;;;;;;10.18;81.82;99396.63;4889823;29;20069;-78
2021/01/10 18:04:36;;;;;;;60.53;44.20;;;;;;;10.19;82.14;99376.00;4905341;29;20475;-78
2021/01/10 18:07:01;;;;;;;56.45;41.33;;;;;;;10.19;81.76;99386.31;4906065;29;20457;-77
2021/01/10 18:09:27;;;;;;;52.00;40.05;;;;;;;10.16;82.26;99371.19;4908567;29;20074;-78
2021/01/10 18:11:57;;;;;;;49.58;38.25;;;;;;;9.95;82.33;99323.69;4912842;29;20044;-78
2021/01/10 18:14:26;;;;;;;71.72;52.38;;;;;;;10.13;82.69;99351.69;4913426;29;20096;-78
2021/01/10 18:16:51;;;;;;;58.60;47.22;;;;;;;10.09;82.52;99334.19;4902564;29;20032;-78
2021/01/10 18:19:17;;;;;;;60.28;45.47;;;;;;;10.12;83.29;99352.84;4900700;29;20032;-78
2021/01/10 18:21:43;;;;;;;61.47;48.95;;;;;;;10.12;82.63;99352.84;4884593;29;20036;-77
2021/01/10 18:24:09;;;;;;;60.47;46.83;;;;;;;10.15;82.37;99352.91;4900013;29;20036;-78
2021/01/10 18:26:35;;;;;;;53.05;43.03;;;;;;;10.09;83.31;99350.84;4884227;29;20036;-77
2021/01/10 18:29:01;;;;;;;47.35;37.53;;;;;;;10.08;83.43;99338.16;4899736;29;20032;-78
2021/01/10 18:31:29;;;;;;;43.05;34.22;;;;;;;10.05;83.56;99338.88;4884328;29;20029;-78
2021/01/10 18:33:55;;;;;;;34.33;28.85;;;;;;;9.88;83.25;99315.28;4883961;29;20065;-78
2021/01/10 18:36:21;;;;;;;40.03;34.38;;;;;;;10.06;83.26;99351.59;4899911;29;20068;-77
2021/01/10 18:38:46;;;;;;;36.70;30.45;;;;;;;10.05;83.30;99355.56;4900265;29;20025;-77
2021/01/10 18:41:12;;;;;;;37.85;31.23;;;;;;;10.04;83.50;99365.09;4899772;29;20043;-77
2021/01/10 18:43:38;;;;;;;37.60;27.63;;;;;;;10.05;82.51;99375.03;4900125;29;20059;-78
2021/01/10 18:46:03;;;;;;;18.38;16.13;;;;;;;10.24;78.14;99374.88;4899987;29;20079;-78